createdAt,value
2023-03-18T00:02:06.000Z,278.68
2023-03-18T00:03:32.000Z,278.67
2023-03-18T00:05:39.000Z,278.67
2023-03-18T00:07:05.000Z,278.67
2023-03-18T00:09:11.000Z,278.69
2023-03-18T00:10:38.000Z,278.69
2023-03-18T00:12:44.000Z,278.71
2023-03-18T00:14:10.000Z,278.71
2023-03-18T00:16:16.000Z,278.72
2023-03-18T00:17:43.000Z,278.72
2023-03-18T00:19:49.000Z,278.72
2023-03-18T00:21:16.000Z,278.72
2023-03-18T00:23:22.000Z,278.71
2023-03-18T00:24:48.000Z,278.71
2023-03-18T00:26:55.000Z,278.71
2023-03-18T00:29:46.000Z,278.71
2023-03-18T00:31:12.000Z,278.72
2023-03-18T00:33:18.000Z,278.71
2023-03-18T00:34:45.000Z,278.74
2023-03-18T00:36:51.000Z,278.74
2023-03-18T00:38:17.000Z,278.75
2023-03-18T00:40:23.000Z,278.76
2023-03-18T00:41:50.000Z,278.76
2023-03-18T00:43:56.000Z,278.78
2023-03-18T00:45:23.000Z,278.76
2023-03-18T00:47:29.000Z,278.78
2023-03-18T00:48:55.000Z,278.79
2023-03-18T00:51:01.000Z,278.79
2023-03-18T00:52:28.000Z,278.79
2023-03-18T00:54:37.000Z,278.79
2023-03-18T00:56:03.000Z,278.82
2023-03-18T00:58:09.000Z,278.82
2023-03-18T00:59:36.000Z,278.83
2023-03-18T01:01:42.000Z,278.86
2023-03-18T01:03:08.000Z,278.85
2023-03-18T01:05:15.000Z,278.88
2023-03-18T01:08:06.000Z,278.89
2023-03-18T01:09:32.000Z,278.89
2023-03-18T01:11:38.000Z,278.89
2023-03-18T01:13:05.000Z,278.9
2023-03-18T01:15:11.000Z,278.89
2023-03-18T01:16:38.000Z,278.89
2023-03-18T01:18:44.000Z,278.9
2023-03-18T01:20:10.000Z,278.92
2023-03-18T01:22:16.000Z,278.94
2023-03-18T01:23:43.000Z,278.97
2023-03-18T01:25:49.000Z,279.01
2023-03-18T01:27:15.000Z,279.03
2023-03-18T01:29:21.000Z,279.05
2023-03-18T01:30:48.000Z,279.08
2023-03-18T01:32:54.000Z,279.08
2023-03-18T01:34:21.000Z,279.08
2023-03-18T01:36:27.000Z,279.08
2023-03-18T01:37:53.000Z,279.09
2023-03-18T01:39:59.000Z,279.1
2023-03-18T01:41:26.000Z,279.12
2023-03-18T01:43:32.000Z,279.1
2023-03-18T01:46:23.000Z,279.12
2023-03-18T01:47:49.000Z,279.12
2023-03-18T01:49:56.000Z,279.12
2023-03-18T01:51:22.000Z,279.12
2023-03-18T01:53:28.000Z,279.15
2023-03-18T01:54:55.000Z,279.13
2023-03-18T01:57:01.000Z,279.13
2023-03-18T01:58:27.000Z,279.13
2023-03-18T02:00:34.000Z,279.12
2023-03-18T02:02:00.000Z,279.12
2023-03-18T02:04:06.000Z,279.12
2023-03-18T02:05:33.000Z,279.12
2023-03-18T02:07:39.000Z,279.12
2023-03-18T02:09:05.000Z,279.13
2023-03-18T02:11:12.000Z,279.15
2023-03-18T02:12:38.000Z,279.17
2023-03-18T02:14:44.000Z,279.19
2023-03-18T02:16:11.000Z,279.2
2023-03-18T02:18:17.000Z,279.23
2023-03-18T02:19:43.000Z,279.23
2023-03-18T02:21:49.000Z,279.24
2023-03-18T02:24:40.000Z,279.27
2023-03-18T02:26:07.000Z,279.33
2023-03-18T02:28:13.000Z,279.34
2023-03-18T02:29:40.000Z,279.34
2023-03-18T02:31:46.000Z,279.35
2023-03-18T02:33:12.000Z,279.35
2023-03-18T02:35:19.000Z,279.35
2023-03-18T02:36:45.000Z,279.35
2023-03-18T02:38:51.000Z,279.34
2023-03-18T02:40:18.000Z,279.34
2023-03-18T02:42:24.000Z,279.34
2023-03-18T02:43:51.000Z,279.33
2023-03-18T02:45:57.000Z,279.34
2023-03-18T02:47:23.000Z,279.34
2023-03-18T02:49:30.000Z,279.34
2023-03-18T02:50:56.000Z,279.34
2023-03-18T02:53:02.000Z,279.34
2023-03-18T02:54:29.000Z,279.34
2023-03-18T02:56:35.000Z,279.34
2023-03-18T02:58:01.000Z,279.34
2023-03-18T03:00:07.000Z,279.37
2023-03-18T03:02:59.000Z,279.37
2023-03-18T03:04:26.000Z,279.37
2023-03-18T03:06:32.000Z,279.38
2023-03-18T03:07:58.000Z,279.37
2023-03-18T03:10:04.000Z,279.38
2023-03-18T03:11:31.000Z,279.38
2023-03-18T03:13:37.000Z,279.4
2023-03-18T03:15:03.000Z,279.4
2023-03-18T03:17:09.000Z,279.41
2023-03-18T03:18:36.000Z,279.4
2023-03-18T03:20:42.000Z,279.42
2023-03-18T03:22:09.000Z,279.42
2023-03-18T03:24:15.000Z,279.44
2023-03-18T03:25:41.000Z,279.48
2023-03-18T03:27:47.000Z,279.54
2023-03-18T03:29:14.000Z,279.55
2023-03-18T03:31:20.000Z,279.58
2023-03-18T03:32:47.000Z,279.62
2023-03-18T03:34:53.000Z,279.62
2023-03-18T03:36:19.000Z,279.62
2023-03-18T03:38:25.000Z,279.65
2023-03-18T03:41:17.000Z,279.63
2023-03-18T03:42:43.000Z,279.6
2023-03-18T03:44:49.000Z,279.59
2023-03-18T03:46:16.000Z,279.59
2023-03-18T03:48:22.000Z,279.56
2023-03-18T03:49:49.000Z,279.56
2023-03-18T03:51:55.000Z,279.55
2023-03-18T03:53:21.000Z,279.55
2023-03-18T03:55:28.000Z,279.55
2023-03-18T03:56:54.000Z,279.55
2023-03-18T03:59:00.000Z,279.54
2023-03-18T04:00:27.000Z,279.52
2023-03-18T04:02:33.000Z,279.52
2023-03-18T04:04:00.000Z,279.49
2023-03-18T04:06:06.000Z,279.51
2023-03-18T04:07:33.000Z,279.49
2023-03-18T04:09:39.000Z,279.49
2023-03-18T04:11:06.000Z,279.48
2023-03-18T04:13:12.000Z,279.48
2023-03-18T04:14:38.000Z,279.48
2023-03-18T04:16:44.000Z,279.49
2023-03-18T04:19:36.000Z,279.49
2023-03-18T04:21:02.000Z,279.49
2023-03-18T04:23:08.000Z,279.49
2023-03-18T04:24:35.000Z,279.49
2023-03-18T04:26:41.000Z,279.51
2023-03-18T04:28:07.000Z,279.51
2023-03-18T04:30:13.000Z,279.51
2023-03-18T04:31:40.000Z,279.51
2023-03-18T04:33:46.000Z,279.52
2023-03-18T04:35:13.000Z,279.55
2023-03-18T04:37:19.000Z,279.52
2023-03-18T04:38:45.000Z,279.52
2023-03-18T04:40:51.000Z,279.51
2023-03-18T04:42:18.000Z,279.52
2023-03-18T04:44:24.000Z,279.52
2023-03-18T04:45:51.000Z,279.51
2023-03-18T04:47:57.000Z,279.51
2023-03-18T04:49:24.000Z,279.51
2023-03-18T04:51:30.000Z,279.49
2023-03-18T04:52:56.000Z,279.49
2023-03-18T04:55:02.000Z,279.48
2023-03-18T04:57:54.000Z,279.48
2023-03-18T04:59:20.000Z,279.48
2023-03-18T05:01:26.000Z,279.47
2023-03-18T05:02:53.000Z,279.47
2023-03-18T05:04:59.000Z,279.48
2023-03-18T05:06:25.000Z,279.47
2023-03-18T05:08:32.000Z,279.47
2023-03-18T05:09:58.000Z,279.47
2023-03-18T05:12:04.000Z,279.48
2023-03-18T05:13:31.000Z,279.48
2023-03-18T05:15:37.000Z,279.47
2023-03-18T05:17:04.000Z,279.44
2023-03-18T05:19:10.000Z,279.44
2023-03-18T05:20:37.000Z,279.44
2023-03-18T05:22:43.000Z,279.44
2023-03-18T05:24:09.000Z,279.41
2023-03-18T05:26:15.000Z,279.38
2023-03-18T05:27:42.000Z,279.37
2023-03-18T05:29:48.000Z,279.34
2023-03-18T05:31:15.000Z,279.31
2023-03-18T05:33:21.000Z,279.33
2023-03-18T05:36:14.000Z,279.31
2023-03-18T05:37:40.000Z,279.38
2023-03-18T05:39:46.000Z,279.49
2023-03-18T05:41:13.000Z,279.58
2023-03-18T05:43:19.000Z,279.67
2023-03-18T05:44:46.000Z,279.89
2023-03-18T05:46:52.000Z,279.99
2023-03-18T05:48:18.000Z,280.1
2023-03-18T05:50:24.000Z,280.13
2023-03-18T05:51:51.000Z,280.27
2023-03-18T05:54:00.000Z,280.42
2023-03-18T05:55:27.000Z,280.57
2023-03-18T05:57:33.000Z,280.64
2023-03-18T05:59:00.000Z,280.72
2023-03-18T06:01:06.000Z,280.82
2023-03-18T06:02:32.000Z,280.91
2023-03-18T06:04:38.000Z,280.96
2023-03-18T06:06:05.000Z,280.97
2023-03-18T06:08:11.000Z,280.97
2023-03-18T06:09:38.000Z,280.96
2023-03-18T06:11:44.000Z,280.97
2023-03-18T06:14:35.000Z,280.97
2023-03-18T06:16:02.000Z,281.03
2023-03-18T06:18:08.000Z,281.12
2023-03-18T06:19:35.000Z,281.15
2023-03-18T06:21:41.000Z,281.14
2023-03-18T06:23:08.000Z,281.21
2023-03-18T06:25:14.000Z,281.23
2023-03-18T06:26:40.000Z,281.29
2023-03-18T06:28:46.000Z,281.3
2023-03-18T06:30:13.000Z,281.37
2023-03-18T06:32:19.000Z,281.43
2023-03-18T06:33:45.000Z,281.48
2023-03-18T06:35:52.000Z,281.49
2023-03-18T06:37:18.000Z,281.52
2023-03-18T06:39:24.000Z,281.62
2023-03-18T06:40:51.000Z,281.69
2023-03-18T06:42:57.000Z,281.7
2023-03-18T06:44:23.000Z,281.82
2023-03-18T06:46:29.000Z,281.92
2023-03-18T06:47:56.000Z,281.95
2023-03-18T06:50:02.000Z,282.06
2023-03-18T06:52:53.000Z,282.17
2023-03-18T06:54:20.000Z,282.23
2023-03-18T06:56:26.000Z,282.31
2023-03-18T06:57:52.000Z,282.42
2023-03-18T06:59:58.000Z,282.47
2023-03-18T07:01:25.000Z,282.5
2023-03-18T07:03:31.000Z,282.5
2023-03-18T07:04:58.000Z,282.54
2023-03-18T07:07:04.000Z,282.56
2023-03-18T07:08:30.000Z,282.59
2023-03-18T07:10:36.000Z,282.6
2023-03-18T07:12:03.000Z,282.66
2023-03-18T07:14:09.000Z,282.68
2023-03-18T07:15:36.000Z,282.73
2023-03-18T07:17:42.000Z,282.74
2023-03-18T07:19:09.000Z,282.84
2023-03-18T07:21:15.000Z,282.89
2023-03-18T07:22:41.000Z,282.89
2023-03-18T07:24:47.000Z,282.86
2023-03-18T07:26:14.000Z,282.91
2023-03-18T07:28:20.000Z,282.95
2023-03-18T07:31:11.000Z,283
2023-03-18T07:32:38.000Z,282.99
2023-03-18T07:34:44.000Z,283.02
2023-03-18T07:36:10.000Z,283.02
2023-03-18T07:38:16.000Z,283.02
2023-03-18T07:39:43.000Z,283
2023-03-18T07:41:49.000Z,283
2023-03-18T07:43:16.000Z,283
2023-03-18T07:45:22.000Z,282.99
2023-03-18T07:46:48.000Z,283
2023-03-18T07:48:55.000Z,283.03
2023-03-18T07:50:21.000Z,283.05
2023-03-18T07:52:27.000Z,283.03
2023-03-18T07:53:54.000Z,283.1
2023-03-18T07:56:00.000Z,283.1
2023-03-18T07:57:26.000Z,283.13
2023-03-18T07:59:33.000Z,283.18
2023-03-18T08:00:59.000Z,283.18
2023-03-18T08:03:05.000Z,283.26
2023-03-18T08:04:32.000Z,283.32
2023-03-18T08:06:38.000Z,283.36
2023-03-18T08:09:29.000Z,283.4
2023-03-18T08:10:56.000Z,283.38
2023-03-18T08:13:02.000Z,283.36
2023-03-18T08:14:28.000Z,283.34
2023-03-18T08:16:34.000Z,283.32
2023-03-18T08:18:01.000Z,283.34
2023-03-18T08:20:07.000Z,283.4
2023-03-18T08:21:34.000Z,283.48
2023-03-18T08:23:40.000Z,283.57
2023-03-18T08:25:06.000Z,283.65
2023-03-18T08:27:13.000Z,283.75
2023-03-18T08:28:39.000Z,283.91
2023-03-18T08:30:45.000Z,284.01
2023-03-18T08:32:12.000Z,284.14
2023-03-18T08:34:18.000Z,284.29
2023-03-18T08:35:44.000Z,284.48
2023-03-18T08:37:50.000Z,284.56
2023-03-18T08:39:17.000Z,284.63
2023-03-18T08:41:23.000Z,284.71
2023-03-18T08:42:50.000Z,284.84
2023-03-18T08:44:56.000Z,284.92
2023-03-18T08:47:47.000Z,285.03
2023-03-18T08:49:14.000Z,285.13
2023-03-18T08:51:20.000Z,285.17
2023-03-18T08:52:46.000Z,285.25
2023-03-18T08:54:52.000Z,285.31
2023-03-18T08:56:19.000Z,285.36
2023-03-18T08:58:25.000Z,285.39
2023-03-18T08:59:51.000Z,285.47
2023-03-18T09:01:58.000Z,285.52
2023-03-18T09:03:24.000Z,285.53
2023-03-18T09:05:30.000Z,285.57
2023-03-18T09:06:57.000Z,285.63
2023-03-18T09:09:04.000Z,285.7
2023-03-18T09:10:30.000Z,285.74
2023-03-18T09:12:36.000Z,285.77
2023-03-18T09:14:03.000Z,285.81
2023-03-18T09:16:09.000Z,285.84
2023-03-18T09:17:35.000Z,285.88
2023-03-18T09:20:06.000Z,285.91
2023-03-18T09:21:32.000Z,285.89
2023-03-18T09:23:38.000Z,285.99
2023-03-18T09:26:29.000Z,285.97
2023-03-18T09:27:56.000Z,286.08
2023-03-18T09:30:02.000Z,286.16
2023-03-18T09:31:29.000Z,286.23
2023-03-18T09:33:35.000Z,286.3
2023-03-18T09:35:01.000Z,286.36
2023-03-18T09:37:08.000Z,286.41
2023-03-18T09:38:34.000Z,286.41
2023-03-18T09:40:40.000Z,286.47
2023-03-18T09:42:07.000Z,286.51
2023-03-18T09:44:13.000Z,286.51
2023-03-18T09:45:40.000Z,286.56
2023-03-18T09:47:46.000Z,286.54
2023-03-18T09:49:12.000Z,286.5
2023-03-18T09:51:18.000Z,286.52
2023-03-18T09:52:45.000Z,286.51
2023-03-18T09:54:51.000Z,286.55
2023-03-18T09:56:18.000Z,286.59
2023-03-18T09:58:24.000Z,286.61
2023-03-18T09:59:50.000Z,286.66
2023-03-18T10:01:57.000Z,286.7
2023-03-18T10:04:48.000Z,286.72
2023-03-18T10:06:14.000Z,286.7
2023-03-18T10:08:21.000Z,286.69
2023-03-18T10:09:47.000Z,286.73
2023-03-18T10:11:53.000Z,286.79
2023-03-18T10:13:20.000Z,286.87
2023-03-18T10:15:26.000Z,286.95
2023-03-18T10:16:52.000Z,287.12
2023-03-18T10:18:58.000Z,287.3
2023-03-18T10:20:25.000Z,287.4
2023-03-18T10:22:31.000Z,287.45
2023-03-18T10:23:58.000Z,287.45
2023-03-18T10:26:04.000Z,287.49
2023-03-18T10:27:30.000Z,287.56
2023-03-18T10:29:36.000Z,287.6
2023-03-18T10:31:03.000Z,287.78
2023-03-18T10:33:09.000Z,287.88
2023-03-18T10:34:36.000Z,288
2023-03-18T10:36:42.000Z,288.03
2023-03-18T10:38:08.000Z,288.02
2023-03-18T10:40:14.000Z,288.07
2023-03-18T10:43:06.000Z,288.16
2023-03-18T10:44:32.000Z,288.17
2023-03-18T10:46:39.000Z,288.2
2023-03-18T10:48:05.000Z,288.25
2023-03-18T10:50:12.000Z,288.25
2023-03-18T10:51:38.000Z,288.29
2023-03-18T10:53:44.000Z,288.29
2023-03-18T10:55:11.000Z,288.31
2023-03-18T10:57:17.000Z,288.36
2023-03-18T10:58:44.000Z,288.33
2023-03-18T11:00:50.000Z,288.35
2023-03-18T11:02:16.000Z,288.36
2023-03-18T11:04:22.000Z,288.38
2023-03-18T11:05:49.000Z,288.42
2023-03-18T11:07:55.000Z,288.54
2023-03-18T11:09:22.000Z,288.64
2023-03-18T11:11:28.000Z,288.75
2023-03-18T11:12:54.000Z,288.81
2023-03-18T11:15:00.000Z,288.82
2023-03-18T11:16:27.000Z,288.78
2023-03-18T11:18:33.000Z,288.74
2023-03-18T11:21:24.000Z,288.7
2023-03-18T11:22:51.000Z,288.67
2023-03-18T11:24:57.000Z,288.67
2023-03-18T11:26:24.000Z,288.57
2023-03-18T11:28:30.000Z,288.56
2023-03-18T11:29:56.000Z,288.49
2023-03-18T11:32:02.000Z,288.5
2023-03-18T11:33:29.000Z,288.53
2023-03-18T11:35:35.000Z,288.56
2023-03-18T11:37:02.000Z,288.54
2023-03-18T11:39:08.000Z,288.6
2023-03-18T11:40:35.000Z,288.63
2023-03-18T11:42:41.000Z,288.7
2023-03-18T11:44:08.000Z,288.78
2023-03-18T11:46:14.000Z,288.89
2023-03-18T11:47:41.000Z,289
2023-03-18T11:49:47.000Z,289.11
2023-03-18T11:51:13.000Z,289.21
2023-03-18T11:53:19.000Z,289.29
2023-03-18T11:54:46.000Z,289.43
2023-03-18T11:56:52.000Z,289.49
2023-03-18T11:59:43.000Z,289.52
2023-03-18T12:01:10.000Z,289.58
2023-03-18T12:03:16.000Z,289.62
2023-03-18T12:04:42.000Z,289.63
2023-03-18T12:06:49.000Z,289.7
2023-03-18T12:08:15.000Z,289.77
2023-03-18T12:10:21.000Z,289.84
2023-03-18T12:11:48.000Z,289.87
2023-03-18T12:13:54.000Z,289.93
2023-03-18T12:15:20.000Z,289.98
2023-03-18T12:17:26.000Z,289.91
2023-03-18T12:18:53.000Z,289.79
2023-03-18T12:20:59.000Z,289.83
2023-03-18T12:22:26.000Z,289.88
2023-03-18T12:24:32.000Z,289.94
2023-03-18T12:25:58.000Z,290.06
2023-03-18T12:28:05.000Z,290.11
2023-03-18T12:29:31.000Z,290.16
2023-03-18T12:31:37.000Z,290.12
2023-03-18T12:33:04.000Z,290.02
2023-03-18T12:35:10.000Z,290.15
2023-03-18T12:38:01.000Z,290.18
2023-03-18T12:39:28.000Z,290.23
2023-03-18T12:41:37.000Z,290.34
2023-03-18T12:43:03.000Z,290.44
2023-03-18T12:45:09.000Z,290.45
2023-03-18T12:46:36.000Z,290.58
2023-03-18T12:48:42.000Z,290.6
2023-03-18T12:50:10.000Z,290.67
2023-03-18T12:52:16.000Z,290.7
2023-03-18T12:53:43.000Z,290.77
2023-03-18T12:55:49.000Z,290.74
2023-03-18T12:57:16.000Z,290.77
2023-03-18T12:59:22.000Z,290.89
2023-03-18T13:00:48.000Z,290.89
2023-03-18T13:02:55.000Z,290.82
2023-03-18T13:04:21.000Z,290.67
2023-03-18T13:06:27.000Z,290.55
2023-03-18T13:07:54.000Z,290.48
2023-03-18T13:10:00.000Z,290.52
2023-03-18T13:11:27.000Z,290.58
2023-03-18T13:13:33.000Z,290.55
2023-03-18T13:16:24.000Z,290.53
2023-03-18T13:17:51.000Z,290.56
2023-03-18T13:19:57.000Z,290.56
2023-03-18T13:21:23.000Z,290.58
2023-03-18T13:23:30.000Z,290.58
2023-03-18T13:24:56.000Z,290.53
2023-03-18T13:27:02.000Z,290.48
2023-03-18T13:28:29.000Z,290.46
2023-03-18T13:30:35.000Z,290.48
2023-03-18T13:32:02.000Z,290.56
2023-03-18T13:34:08.000Z,290.66
2023-03-18T13:35:34.000Z,290.71
2023-03-18T13:37:40.000Z,290.71
2023-03-18T13:39:07.000Z,290.7
2023-03-18T13:41:13.000Z,290.62
2023-03-18T13:42:40.000Z,290.63
2023-03-18T13:44:46.000Z,290.72
2023-03-18T13:46:12.000Z,290.98
2023-03-18T13:48:19.000Z,291.16
2023-03-18T13:49:45.000Z,291.11
2023-03-18T13:51:51.000Z,291.13
2023-03-18T13:54:42.000Z,290.99
2023-03-18T13:56:09.000Z,290.84
2023-03-18T13:58:15.000Z,290.75
2023-03-18T13:59:41.000Z,290.7
2023-03-18T14:01:48.000Z,290.67
2023-03-18T14:03:14.000Z,290.65
2023-03-18T14:05:20.000Z,290.56
2023-03-18T14:06:47.000Z,290.55
2023-03-18T14:08:53.000Z,290.53
2023-03-18T14:10:20.000Z,290.53
2023-03-18T14:12:26.000Z,290.51
2023-03-18T14:13:52.000Z,290.59
2023-03-18T14:15:58.000Z,290.7
2023-03-18T14:17:25.000Z,290.82
2023-03-18T14:19:31.000Z,290.91
2023-03-18T14:20:58.000Z,290.89
2023-03-18T14:23:04.000Z,290.75
2023-03-18T14:24:30.000Z,290.59
2023-03-18T14:26:36.000Z,290.58
2023-03-18T14:28:03.000Z,290.53
2023-03-18T14:30:09.000Z,290.51
2023-03-18T14:33:00.000Z,290.42
2023-03-18T14:34:27.000Z,290.35
2023-03-18T14:36:33.000Z,290.33
2023-03-18T14:37:59.000Z,290.3
2023-03-18T14:40:05.000Z,290.23
2023-03-18T14:41:32.000Z,290.2
2023-03-18T14:43:38.000Z,290.2
2023-03-18T14:45:05.000Z,290.22
2023-03-18T14:47:11.000Z,290.25
2023-03-18T14:48:37.000Z,290.3
2023-03-18T14:50:43.000Z,290.28
2023-03-18T14:52:10.000Z,290.25
2023-03-18T14:54:16.000Z,290.26
2023-03-18T14:55:42.000Z,290.22
2023-03-18T14:57:49.000Z,290.28
2023-03-18T14:59:15.000Z,290.34
2023-03-18T15:01:21.000Z,290.48
2023-03-18T15:02:48.000Z,290.58
2023-03-18T15:04:54.000Z,290.65
2023-03-18T15:06:21.000Z,290.63
2023-03-18T15:08:27.000Z,290.58
2023-03-18T15:11:35.000Z,290.55
2023-03-18T15:13:02.000Z,290.59
2023-03-18T15:15:08.000Z,290.49
2023-03-18T15:16:35.000Z,290.42
2023-03-18T15:18:41.000Z,290.37
2023-03-18T15:20:07.000Z,290.28
2023-03-18T15:22:13.000Z,290.23
2023-03-18T15:23:40.000Z,290.22
2023-03-18T15:25:46.000Z,290.22
2023-03-18T15:27:13.000Z,290.18
2023-03-18T15:29:19.000Z,290.13
2023-03-18T15:30:45.000Z,290.12
2023-03-18T15:32:51.000Z,290.09
2023-03-18T15:34:18.000Z,290.09
2023-03-18T15:36:24.000Z,290.28
2023-03-18T15:37:51.000Z,290.37
2023-03-18T15:39:57.000Z,290.28
2023-03-18T15:41:23.000Z,290.2
2023-03-18T15:43:29.000Z,290.12
2023-03-18T15:44:56.000Z,290
2023-03-18T15:47:02.000Z,289.9
2023-03-18T15:49:53.000Z,289.74
2023-03-18T15:51:20.000Z,289.69
2023-03-18T15:53:26.000Z,289.68
2023-03-18T15:54:52.000Z,289.65
2023-03-18T15:56:59.000Z,289.63
2023-03-18T15:58:25.000Z,289.59
2023-03-18T16:00:31.000Z,289.56
2023-03-18T16:01:58.000Z,289.51
2023-03-18T16:04:04.000Z,289.48
2023-03-18T16:05:30.000Z,289.42
2023-03-18T16:07:37.000Z,289.42
2023-03-18T16:09:04.000Z,289.37
2023-03-18T16:11:10.000Z,289.33
2023-03-18T16:12:36.000Z,289.3
2023-03-18T16:14:43.000Z,289.25
2023-03-18T16:16:09.000Z,289.19
2023-03-18T16:18:15.000Z,289.15
2023-03-18T16:19:42.000Z,289.11
2023-03-18T16:21:48.000Z,289.08
2023-03-18T16:23:15.000Z,289.04
2023-03-18T16:25:21.000Z,288.98
2023-03-18T16:28:12.000Z,288.91
2023-03-18T16:29:39.000Z,288.87
2023-03-18T16:31:45.000Z,288.83
2023-03-18T16:33:12.000Z,288.78
2023-03-18T16:35:18.000Z,288.75
2023-03-18T16:36:44.000Z,288.71
2023-03-18T16:38:50.000Z,288.67
2023-03-18T16:40:17.000Z,288.64
2023-03-18T16:42:23.000Z,288.61
2023-03-18T16:43:50.000Z,288.57
2023-03-18T16:45:56.000Z,288.54
2023-03-18T16:47:22.000Z,288.51
2023-03-18T16:49:29.000Z,288.47
2023-03-18T16:50:55.000Z,288.42
2023-03-18T16:53:04.000Z,288.35
2023-03-18T16:54:30.000Z,288.31
2023-03-18T16:56:36.000Z,288.21
2023-03-18T16:58:03.000Z,288.1
2023-03-18T17:00:09.000Z,288.03
2023-03-18T17:01:36.000Z,287.99
2023-03-18T17:03:42.000Z,287.95
2023-03-18T17:06:33.000Z,287.85
2023-03-18T17:08:00.000Z,287.77
2023-03-18T17:10:06.000Z,287.71
2023-03-18T17:11:32.000Z,287.66
2023-03-18T17:13:38.000Z,287.61
2023-03-18T17:15:05.000Z,287.56
2023-03-18T17:17:11.000Z,287.49
2023-03-18T17:18:38.000Z,287.38
2023-03-18T17:20:44.000Z,287.27
2023-03-18T17:22:10.000Z,287.23
2023-03-18T17:24:16.000Z,287.14
2023-03-18T17:25:43.000Z,287.05
2023-03-18T17:27:49.000Z,287
2023-03-18T17:29:15.000Z,286.94
2023-03-18T17:31:21.000Z,286.9
2023-03-18T17:32:48.000Z,286.87
2023-03-18T17:34:54.000Z,286.82
2023-03-18T17:36:21.000Z,286.75
2023-03-18T17:38:27.000Z,286.73
2023-03-18T17:39:53.000Z,286.68
2023-03-18T17:42:00.000Z,286.63
2023-03-18T17:44:51.000Z,286.54
2023-03-18T17:46:17.000Z,286.45
2023-03-18T17:48:23.000Z,286.4
2023-03-18T17:49:50.000Z,286.29
2023-03-18T17:51:56.000Z,286.2
2023-03-18T17:53:22.000Z,286.11
2023-03-18T17:55:29.000Z,286.02
2023-03-18T17:56:55.000Z,285.93
2023-03-18T17:59:01.000Z,285.88
2023-03-18T18:00:28.000Z,285.84
2023-03-18T18:02:34.000Z,285.78
2023-03-18T18:04:00.000Z,285.75
2023-03-18T18:06:06.000Z,285.75
2023-03-18T18:07:33.000Z,285.7
2023-03-18T18:09:39.000Z,285.64
2023-03-18T18:11:05.000Z,285.6
2023-03-18T18:13:12.000Z,285.57
2023-03-18T18:14:38.000Z,285.5
2023-03-18T18:16:44.000Z,285.43
2023-03-18T18:18:11.000Z,285.36
2023-03-18T18:20:17.000Z,285.31
2023-03-18T18:23:08.000Z,285.22
2023-03-18T18:24:34.000Z,285.14
2023-03-18T18:26:41.000Z,285.09
2023-03-18T18:28:07.000Z,285.02
2023-03-18T18:30:13.000Z,284.96
2023-03-18T18:31:40.000Z,284.89
2023-03-18T18:33:46.000Z,284.78
2023-03-18T18:35:12.000Z,284.71
2023-03-18T18:37:19.000Z,284.66
2023-03-18T18:38:45.000Z,284.59
2023-03-18T18:40:51.000Z,284.59
2023-03-18T18:42:18.000Z,284.55
2023-03-18T18:44:24.000Z,284.51
2023-03-18T18:45:50.000Z,284.44
2023-03-18T18:47:56.000Z,284.35
2023-03-18T18:49:23.000Z,284.31
2023-03-18T18:51:29.000Z,284.26
2023-03-18T18:52:56.000Z,284.23
2023-03-18T18:55:02.000Z,284.2
2023-03-18T18:56:28.000Z,284.17
2023-03-18T18:58:34.000Z,284.12
2023-03-18T19:01:25.000Z,284.07
2023-03-18T19:02:52.000Z,283.98
2023-03-18T19:04:58.000Z,283.97
2023-03-18T19:06:25.000Z,283.91
2023-03-18T19:08:31.000Z,283.89
2023-03-18T19:09:57.000Z,283.9
2023-03-18T19:12:03.000Z,283.86
2023-03-18T19:13:30.000Z,283.82
2023-03-18T19:15:36.000Z,283.77
2023-03-18T19:17:03.000Z,283.72
2023-03-18T19:19:09.000Z,283.64
2023-03-18T19:20:35.000Z,283.54
2023-03-18T19:22:41.000Z,283.47
2023-03-18T19:24:08.000Z,283.34
2023-03-18T19:26:14.000Z,283.27
2023-03-18T19:27:40.000Z,283.18
2023-03-18T19:29:46.000Z,283.13
2023-03-18T19:31:13.000Z,283.07
2023-03-18T19:33:19.000Z,283.05
2023-03-18T19:34:46.000Z,283
2023-03-18T19:36:52.000Z,282.98
2023-03-18T19:39:43.000Z,282.91
2023-03-18T19:41:10.000Z,282.86
2023-03-18T19:43:16.000Z,282.84
2023-03-18T19:44:42.000Z,282.81
2023-03-18T19:46:48.000Z,282.77
2023-03-18T19:48:15.000Z,282.73
2023-03-18T19:50:21.000Z,282.7
2023-03-18T19:51:48.000Z,282.66
2023-03-18T19:53:54.000Z,282.64
2023-03-18T19:55:20.000Z,282.64
2023-03-18T19:57:26.000Z,282.63
2023-03-18T19:58:53.000Z,282.63
2023-03-18T20:00:59.000Z,282.57
2023-03-18T20:02:26.000Z,282.53
2023-03-18T20:04:32.000Z,282.52
2023-03-18T20:05:58.000Z,282.52
2023-03-18T20:08:04.000Z,282.5
2023-03-18T20:09:31.000Z,282.52
2023-03-18T20:11:37.000Z,282.53
2023-03-18T20:13:03.000Z,282.54
2023-03-18T20:15:09.000Z,282.53
2023-03-18T20:18:00.000Z,282.53
2023-03-18T20:19:27.000Z,282.5
2023-03-18T20:21:33.000Z,282.46
2023-03-18T20:23:00.000Z,282.41
2023-03-18T20:25:06.000Z,282.36
2023-03-18T20:26:32.000Z,282.31
2023-03-18T20:28:38.000Z,282.28
2023-03-18T20:30:05.000Z,282.23
2023-03-18T20:32:11.000Z,282.17
2023-03-18T20:33:37.000Z,282.12
2023-03-18T20:35:44.000Z,282.08
2023-03-18T20:37:10.000Z,282.03
2023-03-18T20:39:16.000Z,282.01
2023-03-18T20:40:43.000Z,281.99
2023-03-18T20:42:49.000Z,281.95
2023-03-18T20:44:16.000Z,281.94
2023-03-18T20:46:22.000Z,281.92
2023-03-18T20:47:52.000Z,281.92
2023-03-18T20:49:58.000Z,281.89
2023-03-18T20:51:24.000Z,281.87
2023-03-18T20:53:30.000Z,281.84
2023-03-18T20:56:22.000Z,281.79
2023-03-18T20:57:48.000Z,281.75
2023-03-18T20:59:54.000Z,281.73
2023-03-18T21:01:21.000Z,281.72
2023-03-18T21:03:27.000Z,281.7
2023-03-18T21:04:54.000Z,281.69
2023-03-18T21:07:00.000Z,281.69
2023-03-18T21:08:26.000Z,281.69
2023-03-18T21:10:32.000Z,281.68
2023-03-18T21:11:59.000Z,281.65
2023-03-18T21:14:05.000Z,281.63
2023-03-18T21:15:32.000Z,281.62
2023-03-18T21:17:38.000Z,281.61
2023-03-18T21:19:05.000Z,281.59
2023-03-18T21:21:11.000Z,281.56
2023-03-18T21:22:37.000Z,281.51
2023-03-18T21:24:44.000Z,281.51
2023-03-18T21:26:10.000Z,281.54
2023-03-18T21:28:16.000Z,281.55
2023-03-18T21:29:43.000Z,281.56
2023-03-18T21:31:49.000Z,281.58
2023-03-18T21:34:40.000Z,281.59
2023-03-18T21:36:07.000Z,281.59
2023-03-18T21:38:13.000Z,281.59
2023-03-18T21:39:40.000Z,281.59
2023-03-18T21:41:46.000Z,281.58
2023-03-18T21:43:12.000Z,281.56
2023-03-18T21:45:18.000Z,281.56
2023-03-18T21:46:45.000Z,281.55
2023-03-18T21:48:51.000Z,281.52
2023-03-18T21:50:18.000Z,281.51
2023-03-18T21:52:24.000Z,281.52
2023-03-18T21:53:50.000Z,281.51
2023-03-18T21:55:56.000Z,281.48
2023-03-18T21:57:23.000Z,281.48
2023-03-18T21:59:29.000Z,281.48
2023-03-18T22:00:55.000Z,281.47
2023-03-18T22:03:02.000Z,281.47
2023-03-18T22:04:28.000Z,281.42
2023-03-18T22:06:34.000Z,281.37
2023-03-18T22:08:01.000Z,281.33
2023-03-18T22:10:07.000Z,281.29
2023-03-18T22:12:58.000Z,281.23
2023-03-18T22:14:25.000Z,281.22
2023-03-18T22:16:31.000Z,281.21
2023-03-18T22:17:57.000Z,281.19
2023-03-18T22:20:04.000Z,281.19
2023-03-18T22:21:30.000Z,281.18
2023-03-18T22:23:36.000Z,281.16
2023-03-18T22:25:03.000Z,281.15
2023-03-18T22:27:09.000Z,281.15
2023-03-18T22:28:35.000Z,281.11
2023-03-18T22:30:42.000Z,281.07
2023-03-18T22:32:08.000Z,281.03
2023-03-18T22:34:14.000Z,281
2023-03-18T22:35:41.000Z,280.98
2023-03-18T22:37:47.000Z,280.98
2023-03-18T22:39:14.000Z,281
2023-03-18T22:41:20.000Z,281.01
2023-03-18T22:42:46.000Z,281
2023-03-18T22:44:52.000Z,281.03
2023-03-18T22:46:19.000Z,281.03
2023-03-18T22:48:25.000Z,281.03
2023-03-18T22:51:16.000Z,281.01
2023-03-18T22:52:43.000Z,281.01